Time;durP1;ratioP1;P1;durP2;ratioP2;P2;SDS_P1;SDS_P2;PMS_P1;PMS_P2;Temp;Humidity;BMP_temperature;BMP_pressure;BME280_temperature;BME280_humidity;BME280_pressure;Samples;Min_cycle;Max_cycle;Signal;HPM_P1;HPM_P2
2022/08/10 00:01:35;;;;;;;6.93;3.97;;;24.50;22.50;;;;;;4990241;28;20263;-71
2022/08/10 00:04:01;;;;;;;6.10;4.23;;;24.60;22.50;;;;;;4993220;28;20178;-72
2022/08/10 00:06:27;;;;;;;6.90;4.50;;;24.40;22.20;;;;;;4993057;28;20543;-71
2022/08/10 00:08:53;;;;;;;6.30;4.20;;;24.40;22.30;;;;;;4994078;28;20178;-71
2022/08/10 00:11:19;;;;;;;6.97;4.20;;;24.40;21.90;;;;;;4991590;28;20198;-71
2022/08/10 00:13:45;;;;;;;8.80;4.50;;;24.30;22.30;;;;;;4993598;28;20274;-71
2022/08/10 00:16:12;;;;;;;6.60;4.47;;;24.20;22.20;;;;;;4992885;28;20519;-71
2022/08/10 00:18:37;;;;;;;5.07;4.03;;;24.30;23.30;;;;;;4991953;28;20255;-71
2022/08/10 00:21:04;;;;;;;5.50;4.40;;;24.40;23.30;;;;;;4992690;28;20441;-71
2022/08/10 00:23:30;;;;;;;6.60;4.53;;;24.50;22.40;;;;;;4992707;28;20185;-72
2022/08/10 00:25:56;;;;;;;8.30;4.50;;;24.40;23.50;;;;;;4993230;28;20469;-74
2022/08/10 00:28:22;;;;;;;5.20;4.30;;;24.60;22.50;;;;;;4988130;28;20547;-72
2022/08/10 00:30:47;;;;;;;14.07;4.53;;;24.70;22.60;;;;;;4992782;28;20718;-71
2022/08/10 00:33:13;;;;;;;5.03;4.47;;;24.40;22.80;;;;;;4992627;28;20204;-72
2022/08/10 00:35:38;;;;;;;5.90;4.70;;;24.60;22.80;;;;;;4993116;28;20182;-74
2022/08/10 00:38:04;;;;;;;7.90;4.33;;;24.60;23.60;;;;;;4991755;28;20181;-71
2022/08/10 00:40:30;;;;;;;7.50;4.33;;;24.40;23.30;;;;;;4986272;28;20335;-71
2022/08/10 00:42:55;;;;;;;6.77;4.57;;;24.40;23.30;;;;;;4992293;28;20218;-71
2022/08/10 00:45:21;;;;;;;8.83;4.70;;;24.40;23.70;;;;;;4992444;28;20182;-72
2022/08/10 00:47:46;;;;;;;7.13;4.47;;;24.40;23.50;;;;;;4992687;28;20272;-74
2022/08/10 00:50:12;;;;;;;7.13;5.10;;;24.40;23.60;;;;;;4990953;28;20370;-71
2022/08/10 00:52:38;;;;;;;6.23;4.30;;;24.30;22.80;;;;;;4992547;28;20193;-73
2022/08/10 00:55:05;;;;;;;7.93;5.00;;;24.40;22.90;;;;;;4992675;28;20193;-71
2022/08/10 00:57:32;;;;;;;6.73;4.30;;;24.50;22.40;;;;;;4983137;28;20967;-73
2022/08/10 00:59:58;;;;;;;7.50;5.27;;;24.50;23.60;;;;;;4990926;28;20467;-71
2022/08/10 01:02:24;;;;;;;10.17;4.80;;;24.30;23.60;;;;;;4990859;28;20430;-71
2022/08/10 01:04:50;;;;;;;8.67;4.60;;;24.20;23.30;;;;;;4985216;28;20551;-73
2022/08/10 01:07:35;;;;;;;6.93;5.03;;;24.20;23.40;;;;;;4992220;28;20666;-74
2022/08/10 01:10:12;;;;;;;5.90;4.50;;;24.20;24.00;;;;;;4991715;28;20275;-75
2022/08/10 01:13:04;;;;;;;6.33;4.47;;;24.30;22.50;;;;;;4991197;28;20478;-71
2022/08/10 01:15:38;;;;;;;6.70;5.10;;;24.10;23.10;;;;;;4938866;29;20448;-72
2022/08/10 01:18:08;;;;;;;8.60;5.27;;;24.10;23.20;;;;;;4929221;29;20432;-71
2022/08/10 01:20:37;;;;;;;11.27;5.07;;;24.20;23.80;;;;;;4930787;29;20453;-74
2022/08/10 01:23:18;;;;;;;10.03;5.03;;;24.10;23.40;;;;;;4939474;28;20422;-71
2022/08/10 01:26:21;;;;;;;5.67;4.70;;;24.00;23.70;;;;;;4939514;29;20462;-71
2022/08/10 01:29:06;;;;;;;12.93;4.70;;;23.90;23.60;;;;;;4937947;29;20479;-71
2022/08/10 01:31:40;;;;;;;6.43;4.67;;;24.00;24.40;;;;;;4939508;29;20943;-72
2022/08/10 01:34:16;;;;;;;7.00;5.40;;;23.80;22.80;;;;;;4947072;29;20467;-71
2022/08/10 01:36:47;;;;;;;6.60;5.07;;;23.70;24.40;;;;;;4931679;29;21047;-71
2022/08/10 01:39:26;;;;;;;7.67;5.40;;;23.80;24.40;;;;;;4939280;29;20454;-71
2022/08/10 01:42:03;;;;;;;6.43;4.90;;;23.80;23.30;;;;;;4942073;29;20528;-72
2022/08/10 01:44:34;;;;;;;8.70;5.50;;;23.80;24.20;;;;;;4931677;29;20444;-71
2022/08/10 01:49:58;;;;;;;7.37;5.43;;;23.60;25.20;;;;;;4945616;29;20510;-74
2022/08/10 01:52:26;;;;;;;7.77;4.90;;;23.80;23.60;;;;;;4962808;28;20474;-71
2022/08/10 01:54:55;;;;;;;9.00;5.43;;;23.80;24.60;;;;;;4991521;28;20434;-71
2022/08/10 01:57:23;;;;;;;6.73;4.83;;;24.00;23.70;;;;;;4990695;28;20434;-74
2022/08/10 01:59:51;;;;;;;6.23;5.30;;;24.00;25.00;;;;;;4989808;28;20991;-73
2022/08/10 02:02:19;;;;;;;6.00;5.03;;;23.80;24.60;;;;;;4987227;28;20470;-72
2022/08/10 02:04:47;;;;;;;8.10;4.67;;;23.90;24.80;;;;;;4991452;28;20443;-71
2022/08/10 02:07:18;;;;;;;8.00;4.97;;;23.70;25.20;;;;;;4990367;28;20434;-72
2022/08/10 02:09:51;;;;;;;7.70;5.60;;;23.90;24.50;;;;;;4991061;28;20464;-72
2022/08/10 02:12:20;;;;;;;9.67;5.70;;;23.80;24.60;;;;;;4991423;28;20469;-71
2022/08/10 02:14:51;;;;;;;13.00;5.30;;;23.90;23.60;;;;;;4991205;28;20427;-71
2022/08/10 02:17:21;;;;;;;10.40;5.10;;;23.90;23.90;;;;;;4990437;28;20427;-71
2022/08/10 02:19:47;;;;;;;7.80;5.40;;;23.90;23.40;;;;;;4989232;28;20455;-71
2022/08/10 02:22:15;;;;;;;7.73;5.37;;;24.00;23.70;;;;;;4990758;28;20432;-75
2022/08/10 02:24:42;;;;;;;5.80;4.73;;;23.60;24.50;;;;;;4991079;28;20440;-71
2022/08/10 02:27:10;;;;;;;10.03;5.30;;;23.70;24.10;;;;;;4991610;28;20438;-71
2022/08/10 02:29:36;;;;;;;6.93;5.30;;;23.80;24.10;;;;;;4989079;28;20536;-77
2022/08/10 02:32:05;;;;;;;7.80;5.30;;;24.00;24.30;;;;;;4987282;28;20440;-72
2022/08/10 02:34:32;;;;;;;5.70;4.77;;;24.00;23.60;;;;;;4993307;28;20781;-71
2022/08/10 02:37:02;;;;;;;7.93;5.47;;;24.20;23.60;;;;;;4995919;28;20835;-73
2022/08/10 02:42:21;;;;;;;10.90;5.60;;;24.10;22.80;;;;;;4966596;28;20480;-74
2022/08/10 02:45:02;;;;;;;7.80;5.10;;;23.80;24.60;;;;;;4974921;28;20521;-74
2022/08/10 02:47:34;;;;;;;8.43;5.00;;;23.70;24.90;;;;;;4968846;28;20506;-74
2022/08/10 02:50:17;;;;;;;12.60;5.80;;;23.50;25.40;;;;;;4973124;28;20952;-74
2022/08/10 02:52:49;;;;;;;7.87;5.33;;;23.30;25.60;;;;;;4945573;29;20467;-74
2022/08/10 02:55:18;;;;;;;6.30;5.77;;;23.40;24.80;;;;;;4947463;28;20850;-74
2022/08/10 02:57:49;;;;;;;7.37;5.40;;;23.20;26.60;;;;;;4945170;29;20658;-74
2022/08/10 03:00:15;;;;;;;7.00;5.50;;;23.50;24.60;;;;;;4956544;28;20541;-74
2022/08/10 03:02:45;;;;;;;6.90;5.87;;;23.20;25.90;;;;;;4953707;28;20954;-74
2022/08/10 03:05:13;;;;;;;6.80;5.47;;;23.30;25.70;;;;;;4955507;29;20430;-74
2022/08/10 03:07:42;;;;;;;18.13;11.73;;;23.00;26.20;;;;;;4956243;29;20453;-75
2022/08/10 03:10:18;;;;;;;11.53;6.00;;;23.10;25.80;;;;;;4954069;28;20987;-74
2022/08/10 03:12:48;;;;;;;9.07;5.33;;;23.30;25.50;;;;;;4946807;28;20485;-74
2022/08/10 03:15:15;;;;;;;7.50;5.37;;;23.00;26.20;;;;;;4955317;29;20434;-74
2022/08/10 03:17:44;;;;;;;9.17;5.87;;;23.40;25.00;;;;;;4950881;29;20841;-74
2022/08/10 03:20:11;;;;;;;8.70;6.00;;;23.50;24.90;;;;;;4952800;29;20543;-74
2022/08/10 03:22:37;;;;;;;8.47;5.17;;;23.30;25.40;;;;;;4950343;28;20444;-76
2022/08/10 03:25:03;;;;;;;5.90;5.30;;;23.10;26.00;;;;;;4953627;28;20980;-75
2022/08/10 03:27:29;;;;;;;7.53;4.80;;;23.10;26.30;;;;;;4931366;29;20431;-74
2022/08/10 03:29:55;;;;;;;9.30;5.50;;;23.30;25.20;;;;;;4954933;29;20474;-74
2022/08/10 03:32:24;;;;;;;7.57;5.53;;;23.20;26.10;;;;;;4954485;28;20905;-74
2022/08/10 03:34:51;;;;;;;14.90;6.07;;;23.20;25.20;;;;;;4953551;28;20445;-74
2022/08/10 03:37:17;;;;;;;7.67;5.50;;;23.20;26.40;;;;;;4949100;29;20430;-76
2022/08/10 03:39:43;;;;;;;15.63;7.00;;;23.20;25.80;;;;;;4934521;29;20494;-78
2022/08/10 03:42:11;;;;;;;8.93;5.67;;;23.20;25.80;;;;;;4948970;29;20614;-74
2022/08/10 03:44:40;;;;;;;9.53;5.90;;;23.30;25.40;;;;;;4954757;28;20218;-74
2022/08/10 03:47:08;;;;;;;11.00;5.67;;;23.30;25.30;;;;;;4951186;29;20489;-74
2022/08/10 03:49:37;;;;;;;9.70;6.17;;;23.10;24.70;;;;;;4951633;28;20853;-76
2022/08/10 03:52:05;;;;;;;8.03;5.80;;;23.10;24.70;;;;;;4948994;28;20435;-74
2022/08/10 03:54:32;;;;;;;11.50;5.67;;;23.00;26.30;;;;;;4955697;28;20797;-74
2022/08/10 03:56:58;;;;;;;7.80;5.60;;;22.70;24.10;;;;;;4955209;28;20423;-77
2022/08/10 03:59:23;;;;;;;7.50;5.60;;;22.20;26.80;;;;;;4953934;28;20452;-77
2022/08/10 04:01:51;;;;;;;7.00;5.50;;;22.40;26.70;;;;;;4920310;29;20469;-74
2022/08/10 04:04:19;;;;;;;9.00;6.20;;;22.70;26.40;;;;;;4953158;29;20272;-74
2022/08/10 04:06:45;;;;;;;13.03;6.03;;;22.60;26.00;;;;;;4948496;29;20771;-73
2022/08/10 04:09:11;;;;;;;11.93;6.70;;;22.00;26.30;;;;;;4954494;29;20432;-74
2022/08/10 04:11:38;;;;;;;7.93;6.57;;;21.70;27.00;;;;;;4954519;28;20466;-74
2022/08/10 04:14:03;;;;;;;10.77;6.50;;;21.90;28.10;;;;;;4953460;29;20201;-73
2022/08/10 04:16:29;;;;;;;11.10;7.00;;;22.00;27.00;;;;;;4950746;29;20425;-73
2022/08/10 04:18:55;;;;;;;9.90;6.73;;;21.50;27.60;;;;;;4948298;29;20706;-73
2022/08/10 04:21:29;;;;;;;9.90;6.80;;;21.50;28.00;;;;;;4949195;29;20215;-74
2022/08/10 04:23:56;;;;;;;9.83;6.57;;;21.80;27.50;;;;;;4954500;28;20476;-79
2022/08/10 04:26:23;;;;;;;7.90;5.73;;;22.10;28.40;;;;;;4944041;29;20503;-74
2022/08/10 04:28:49;;;;;;;9.50;6.07;;;22.40;26.80;;;;;;4951201;29;20441;-74
2022/08/10 04:31:16;;;;;;;9.20;5.80;;;22.50;25.90;;;;;;4951945;29;20469;-77
2022/08/10 04:33:46;;;;;;;9.17;6.17;;;22.70;27.00;;;;;;4953875;28;20201;-74
2022/08/10 04:36:14;;;;;;;8.40;5.80;;;22.70;27.00;;;;;;4951679;29;20444;-74
2022/08/10 04:38:40;;;;;;;10.40;6.50;;;22.60;27.80;;;;;;4948948;28;20815;-74
2022/08/10 04:41:07;;;;;;;9.83;6.40;;;22.50;27.80;;;;;;4951069;28;20478;-74
2022/08/10 04:43:33;;;;;;;9.13;5.70;;;22.60;26.80;;;;;;4953213;28;20441;-77
2022/08/10 04:45:59;;;;;;;10.10;5.73;;;22.50;27.40;;;;;;4949970;29;20523;-78
2022/08/10 04:48:25;;;;;;;12.07;6.23;;;22.40;27.20;;;;;;4952650;29;20527;-74
2022/08/10 04:50:50;;;;;;;12.73;6.13;;;22.30;28.30;;;;;;4953236;28;20212;-74
2022/08/10 04:53:16;;;;;;;8.43;5.97;;;22.30;29.10;;;;;;4953082;29;20478;-74
2022/08/10 04:55:42;;;;;;;10.30;6.80;;;22.40;28.10;;;;;;4957431;28;20188;-77
2022/08/10 04:58:07;;;;;;;12.83;6.57;;;22.40;28.60;;;;;;4952718;28;20179;-75
2022/08/10 05:00:33;;;;;;;11.80;6.33;;;22.70;27.30;;;;;;4948711;28;20204;-78
2022/08/10 05:02:59;;;;;;;9.87;6.20;;;22.60;28.20;;;;;;4947451;29;20949;-77
2022/08/10 05:05:25;;;;;;;10.37;6.13;;;22.40;28.70;;;;;;4943459;28;20869;-74
2022/08/10 05:07:50;;;;;;;12.27;5.97;;;22.60;27.90;;;;;;4939074;29;20191;-74
2022/08/10 05:10:16;;;;;;;10.10;5.90;;;22.80;27.60;;;;;;4953426;29;20212;-74
2022/08/10 05:12:42;;;;;;;12.97;6.80;;;22.60;29.50;;;;;;4952136;29;20214;-75
2022/08/10 05:15:09;;;;;;;15.30;7.57;;;22.30;28.70;;;;;;4952676;29;20192;-75
2022/08/10 05:17:36;;;;;;;23.27;10.30;;;22.00;27.60;;;;;;4957111;28;20190;-73
2022/08/10 05:20:06;;;;;;;17.90;10.80;;;21.50;28.60;;;;;;4950169;29;20465;-74
2022/08/10 05:22:40;;;;;;;15.57;10.00;;;20.20;28.10;;;;;;4944974;29;20443;-75
2022/08/10 05:25:15;;;;;;;21.30;10.87;;;21.30;29.20;;;;;;4952890;29;20430;-78
2022/08/10 05:27:41;;;;;;;15.80;10.30;;;21.20;29.10;;;;;;4940322;28;20485;-74
2022/08/10 05:30:09;;;;;;;16.50;8.70;;;21.20;30.20;;;;;;4950075;29;20475;-74
2022/08/10 05:32:36;;;;;;;12.50;7.77;;;21.30;28.70;;;;;;4947244;29;20507;-74
2022/08/10 05:35:02;;;;;;;10.60;6.73;;;21.30;28.40;;;;;;4951759;29;20476;-73
2022/08/10 05:37:29;;;;;;;13.80;6.00;;;21.70;29.10;;;;;;4954009;28;20431;-78
2022/08/10 05:39:55;;;;;;;13.33;6.10;;;22.00;28.00;;;;;;4951514;28;20472;-74
2022/08/10 05:42:22;;;;;;;8.93;6.10;;;22.30;26.90;;;;;;4947728;29;20450;-75
2022/08/10 05:44:48;;;;;;;10.93;6.30;;;22.60;27.80;;;;;;4951008;29;20426;-78
2022/08/10 05:47:15;;;;;;;20.10;6.33;;;22.60;26.60;;;;;;4948027;29;20802;-74
2022/08/10 05:49:41;;;;;;;9.23;5.60;;;22.70;25.30;;;;;;4953869;28;20183;-74
2022/08/10 05:52:06;;;;;;;8.47;6.23;;;22.70;25.70;;;;;;4948054;29;20549;-78
2022/08/10 05:54:32;;;;;;;19.17;6.07;;;22.70;27.40;;;;;;4946621;29;20180;-74
2022/08/10 05:56:58;;;;;;;16.67;5.80;;;22.60;25.90;;;;;;4949904;28;20807;-74
2022/08/10 05:59:30;;;;;;;8.60;5.80;;;22.80;25.40;;;;;;4951546;28;20753;-76
2022/08/10 06:01:57;;;;;;;6.50;5.37;;;22.60;24.90;;;;;;4949780;28;20184;-80
2022/08/10 06:04:31;;;;;;;17.63;5.83;;;22.90;25.50;;;;;;4949574;29;20433;-77
2022/08/10 06:07:00;;;;;;;8.87;5.33;;;23.30;26.10;;;;;;4945985;29;20442;-78
2022/08/10 06:09:28;;;;;;;12.13;6.60;;;22.90;25.30;;;;;;4947442;29;20426;-76
2022/08/10 06:11:57;;;;;;;8.17;5.93;;;22.80;28.00;;;;;;4956736;28;20416;-76
2022/08/10 06:17:16;;;;;;;7.23;5.67;;;23.10;25.00;;;;;;4885692;29;20473;-78
2022/08/10 06:19:42;;;;;;;8.60;6.07;;;22.70;25.80;;;;;;4892255;29;20787;-77
2022/08/10 06:22:09;;;;;;;14.93;6.20;;;22.60;25.80;;;;;;4897380;29;20508;-75
2022/08/10 06:24:39;;;;;;;8.13;5.73;;;22.50;27.00;;;;;;4897608;29;21094;-76
2022/08/10 06:27:05;;;;;;;14.30;6.13;;;22.80;26.90;;;;;;4874057;29;20817;-76
2022/08/10 06:29:34;;;;;;;8.67;6.30;;;23.00;25.80;;;;;;4885477;29;20454;-78
2022/08/10 06:32:01;;;;;;;10.57;6.30;;;23.00;25.70;;;;;;4883098;29;20450;-75
2022/08/10 06:34:37;;;;;;;17.93;6.03;;;23.40;24.50;;;;;;4878574;29;20429;-78
2022/08/10 06:37:06;;;;;;;11.50;5.50;;;23.30;25.30;;;;;;4883942;29;20440;-77
2022/08/10 06:39:32;;;;;;;10.73;5.10;;;24.10;24.10;;;;;;4889149;29;20518;-76
2022/08/10 06:42:25;;;;;;;7.70;4.83;;;24.10;24.60;;;;;;4889276;29;20437;-76
2022/08/10 06:45:02;;;;;;;8.20;5.27;;;24.30;23.30;;;;;;4878713;29;20405;-75
2022/08/10 06:47:40;;;;;;;12.60;4.60;;;24.40;23.70;;;;;;4875949;29;20531;-77
2022/08/10 06:50:14;;;;;;;8.23;4.87;;;24.60;23.50;;;;;;4890202;29;20871;-78
2022/08/10 06:52:41;;;;;;;11.77;5.07;;;24.80;22.70;;;;;;4883191;29;20472;-77
2022/08/10 06:55:11;;;;;;;17.97;5.20;;;25.10;22.90;;;;;;4952932;29;20453;-77
2022/08/10 06:57:38;;;;;;;6.10;4.80;;;25.20;22.90;;;;;;4952171;28;20772;-75
2022/08/10 07:00:06;;;;;;;11.97;4.73;;;25.30;22.30;;;;;;4958198;28;21040;-79
2022/08/10 07:02:54;;;;;;;13.83;4.67;;;25.20;22.30;;;;;;4952865;28;20445;-77
2022/08/10 07:05:23;;;;;;;14.00;4.77;;;25.20;22.90;;;;;;4955744;29;20415;-78
2022/08/10 07:07:55;;;;;;;6.33;5.00;;;25.30;22.50;;;;;;4970108;28;20813;-77
2022/08/10 07:10:24;;;;;;;9.13;5.10;;;25.40;22.10;;;;;;4955660;29;21177;-76
2022/08/10 07:12:54;;;;;;;9.33;4.83;;;25.40;22.30;;;;;;4955805;28;20822;-76
2022/08/10 07:15:20;;;;;;;18.43;4.93;;;25.40;22.10;;;;;;4956135;28;20418;-76
2022/08/10 07:17:47;;;;;;;6.70;4.73;;;25.30;22.90;;;;;;4970403;28;20430;-75
2022/08/10 07:20:18;;;;;;;8.87;5.10;;;25.30;22.80;;;;;;4952826;28;20450;-76
2022/08/10 07:22:47;;;;;;;7.97;4.97;;;25.60;21.90;;;;;;4955812;29;20534;-76
2022/08/10 07:25:17;;;;;;;11.53;4.93;;;25.70;22.30;;;;;;4950073;28;20442;-76
2022/08/10 07:27:44;;;;;;;8.30;5.13;;;25.40;22.40;;;;;;4955079;28;20430;-75
2022/08/10 07:30:10;;;;;;;9.10;4.77;;;25.40;22.20;;;;;;4952470;29;20465;-76
2022/08/10 07:32:36;;;;;;;11.33;4.77;;;25.20;22.90;;;;;;4955395;29;20465;-75
2022/08/10 07:35:03;;;;;;;11.23;4.80;;;24.90;22.70;;;;;;4948005;28;20445;-75
2022/08/10 07:37:34;;;;;;;17.70;4.70;;;25.10;22.70;;;;;;4956592;28;20808;-76
2022/08/10 07:40:01;;;;;;;9.17;4.80;;;25.30;22.30;;;;;;4953083;29;20493;-75
2022/08/10 07:42:28;;;;;;;7.67;4.40;;;25.30;23.00;;;;;;4947003;29;20445;-75
2022/08/10 07:44:54;;;;;;;8.47;4.90;;;25.60;23.00;;;;;;4942636;28;20502;-75
2022/08/10 07:47:29;;;;;;;10.97;5.00;;;25.90;22.00;;;;;;4954755;29;20419;-75
2022/08/10 07:50:00;;;;;;;7.70;4.53;;;26.00;21.70;;;;;;4960555;28;20225;-79
2022/08/10 07:52:27;;;;;;;7.43;4.33;;;26.00;21.90;;;;;;4948452;29;20958;-74
2022/08/10 07:54:54;;;;;;;7.20;4.80;;;26.10;22.60;;;;;;4955444;29;20403;-74
2022/08/10 07:57:25;;;;;;;9.27;4.63;;;26.20;22.20;;;;;;4954553;29;20850;-77
2022/08/10 07:59:56;;;;;;;8.33;5.23;;;26.20;21.30;;;;;;4948919;28;20456;-74
2022/08/10 08:02:45;;;;;;;4.90;4.03;;;26.30;21.70;;;;;;4952544;29;20466;-74
2022/08/10 08:05:12;;;;;;;7.10;4.40;;;26.20;21.20;;;;;;4949230;29;20839;-74
2022/08/10 08:07:38;;;;;;;13.43;4.07;;;26.50;21.50;;;;;;4956636;28;20953;-75
2022/08/10 08:10:07;;;;;;;14.67;4.40;;;26.30;18.70;;;;;;4952277;28;20458;-74
2022/08/10 08:12:34;;;;;;;8.30;4.17;;;26.10;19.80;;;;;;4946848;29;20472;-74
2022/08/10 08:15:02;;;;;;;10.57;4.43;;;26.40;20.30;;;;;;4947110;29;20446;-76
2022/08/10 08:17:30;;;;;;;5.90;3.90;;;26.60;19.70;;;;;;4948378;29;20434;-74
2022/08/10 08:19:57;;;;;;;8.17;4.23;;;26.80;18.40;;;;;;4951302;28;20458;-76
2022/08/10 08:22:24;;;;;;;20.73;4.70;;;26.70;18.50;;;;;;4951953;29;20497;-73
2022/08/10 08:24:51;;;;;;;10.80;4.17;;;26.60;18.30;;;;;;4953544;29;20418;-76
2022/08/10 08:27:18;;;;;;;7.60;4.20;;;26.20;19.00;;;;;;4949338;29;20792;-75
2022/08/10 08:29:47;;;;;;;4.83;4.00;;;26.70;19.60;;;;;;4950759;29;20430;-73
2022/08/10 08:32:16;;;;;;;11.17;4.30;;;26.70;19.30;;;;;;4954569;28;20539;-77
2022/08/10 08:34:43;;;;;;;9.80;4.00;;;26.70;19.10;;;;;;4947748;29;20451;-73
2022/08/10 08:37:10;;;;;;;9.00;4.30;;;26.70;18.00;;;;;;4943416;29;20956;-74
2022/08/10 08:39:36;;;;;;;9.07;4.00;;;27.00;17.20;;;;;;4953800;28;20446;-74
2022/08/10 08:42:12;;;;;;;6.10;4.20;;;27.00;17.40;;;;;;4946693;28;20445;-74
2022/08/10 08:45:03;;;;;;;6.33;3.80;;;27.20;17.60;;;;;;4954350;28;20414;-74
2022/08/10 08:47:57;;;;;;;5.30;3.70;;;27.30;17.10;;;;;;4954413;28;20493;-74
2022/08/10 08:50:47;;;;;;;6.13;3.50;;;27.10;17.00;;;;;;4954484;29;20514;-73
2022/08/10 08:53:27;;;;;;;7.03;4.07;;;27.50;17.20;;;;;;4954094;29;20465;-74
2022/08/10 08:56:48;;;;;;;4.40;3.67;;;27.50;17.10;;;;;;4954511;29;20738;-74
2022/08/10 08:59:22;;;;;;;5.37;4.20;;;27.90;16.40;;;;;;4873205;29;20444;-74
2022/08/10 09:02:43;;;;;;;8.70;4.20;;;27.90;15.70;;;;;;4934634;29;20433;-73
2022/08/10 09:05:44;;;;;;;13.80;4.00;;;28.10;15.40;;;;;;4894659;29;20815;-76
2022/08/10 09:08:31;;;;;;;10.67;3.60;;;28.40;15.40;;;;;;4894917;29;20409;-74
2022/08/10 09:11:11;;;;;;;6.93;3.90;;;28.20;14.90;;;;;;4879204;29;20831;-74
2022/08/10 09:13:45;;;;;;;11.83;3.60;;;28.10;14.80;;;;;;4894678;29;20472;-74
2022/08/10 09:16:45;;;;;;;8.37;3.53;;;28.20;13.80;;;;;;4894691;29;20489;-71
2022/08/10 09:19:29;;;;;;;16.23;3.80;;;28.40;14.80;;;;;;4894658;29;20481;-75
2022/08/10 09:22:22;;;;;;;5.23;3.50;;;28.40;13.10;;;;;;4859999;29;20949;-71
2022/08/10 09:25:06;;;;;;;5.40;3.50;;;28.30;13.00;;;;;;4875731;29;20458;-71
2022/08/10 09:27:39;;;;;;;4.87;3.77;;;28.10;14.80;;;;;;4888697;29;20464;-74
2022/08/10 09:30:07;;;;;;;5.00;3.50;;;28.10;15.30;;;;;;4890938;29;20544;-70
2022/08/10 09:32:49;;;;;;;3.83;3.40;;;28.20;13.50;;;;;;4888296;29;20515;-71
2022/08/10 09:35:32;;;;;;;13.97;3.63;;;28.20;15.10;;;;;;4885808;29;20802;-80
2022/08/10 09:38:26;;;;;;;5.40;3.27;;;28.30;13.70;;;;;;4887489;29;20457;-71
2022/08/10 09:41:06;;;;;;;9.47;4.07;;;28.20;14.20;;;;;;4951710;28;20473;-70
2022/08/10 09:43:41;;;;;;;7.43;3.40;;;28.70;14.10;;;;;;4952262;28;20426;-72
2022/08/10 09:46:38;;;;;;;5.67;3.33;;;28.70;13.40;;;;;;4936140;29;20428;-70
2022/08/10 09:49:27;;;;;;;9.13;3.87;;;28.80;12.40;;;;;;4953588;29;20406;-71
2022/08/10 09:51:58;;;;;;;7.80;3.83;;;28.80;12.90;;;;;;4956374;28;20796;-71
2022/08/10 09:54:33;;;;;;;5.70;3.43;;;28.80;13.40;;;;;;4947904;29;20969;-71
2022/08/10 09:57:15;;;;;;;6.17;3.90;;;29.00;13.20;;;;;;4952003;28;20469;-72
2022/08/10 10:00:11;;;;;;;7.30;4.20;;;29.20;12.20;;;;;;4973080;28;20464;-71
2022/08/10 10:02:47;;;;;;;5.80;3.50;;;28.90;13.40;;;;;;4949892;28;20478;-73
2022/08/10 10:05:31;;;;;;;6.47;3.67;;;29.00;13.40;;;;;;4953037;29;20399;-70
2022/08/10 10:08:16;;;;;;;4.10;3.13;;;29.00;13.20;;;;;;4952893;29;20430;-72
2022/08/10 10:11:07;;;;;;;4.83;3.90;;;29.30;12.60;;;;;;4950366;29;20465;-70
2022/08/10 10:13:42;;;;;;;4.20;3.40;;;29.40;12.40;;;;;;4948764;28;20524;-74
2022/08/10 10:16:36;;;;;;;5.70;3.60;;;29.30;11.20;;;;;;4951432;29;20446;-73
2022/08/10 10:19:20;;;;;;;16.30;3.27;;;29.40;12.90;;;;;;4937770;29;20449;-75
2022/08/10 10:21:53;;;;;;;5.43;3.83;;;29.60;12.70;;;;;;4951719;29;20466;-75
2022/08/10 10:24:48;;;;;;;13.53;3.33;;;29.60;13.10;;;;;;4925803;29;20594;-70
2022/08/10 10:27:36;;;;;;;5.13;3.73;;;30.00;12.50;;;;;;4948394;28;20489;-73
2022/08/10 10:30:12;;;;;;;8.60;3.27;;;29.90;11.30;;;;;;4951845;28;20473;-73
2022/08/10 10:32:41;;;;;;;14.07;4.37;;;29.50;12.70;;;;;;4933385;29;20874;-71
2022/08/10 10:35:23;;;;;;;5.83;3.40;;;29.80;11.40;;;;;;4948368;28;20508;-71
2022/08/10 10:37:52;;;;;;;10.70;3.57;;;29.90;12.10;;;;;;4950904;28;20441;-70
2022/08/10 10:40:20;;;;;;;13.60;3.73;;;29.90;12.70;;;;;;4952364;29;20934;-70
2022/08/10 10:42:48;;;;;;;15.40;3.30;;;30.10;10.60;;;;;;4952568;28;20898;-69
2022/08/10 10:45:38;;;;;;;8.33;3.27;;;30.00;10.30;;;;;;4949575;28;20474;-71
2022/08/10 10:48:38;;;;;;;19.73;4.27;;;30.40;11.00;;;;;;4952155;28;20929;-70
2022/08/10 10:51:25;;;;;;;5.57;3.63;;;30.80;10.10;;;;;;4943499;28;20466;-72
2022/08/10 10:54:07;;;;;;;9.20;3.33;;;30.40;10.70;;;;;;4947514;28;20474;-74
2022/08/10 10:56:53;;;;;;;11.37;3.63;;;30.20;11.00;;;;;;4951539;28;20475;-72
2022/08/10 10:59:34;;;;;;;5.00;3.40;;;30.60;10.60;;;;;;4960621;28;20453;-75
2022/08/10 11:02:24;;;;;;;9.43;3.97;;;31.10;10.90;;;;;;4955884;29;20497;-72
2022/08/10 11:05:17;;;;;;;9.67;3.57;;;31.00;9.40;;;;;;4956347;29;20510;-72
2022/08/10 11:08:21;;;;;;;10.20;3.70;;;30.80;9.40;;;;;;4964954;28;20503;-72
2022/08/10 11:11:09;;;;;;;6.80;3.70;;;31.00;9.10;;;;;;4896291;29;20585;-73
2022/08/10 11:13:53;;;;;;;8.27;3.77;;;31.40;8.70;;;;;;4896505;29;20471;-73
2022/08/10 11:16:28;;;;;;;4.90;3.50;;;31.70;9.30;;;;;;4896755;29;20432;-72
2022/08/10 11:19:05;;;;;;;6.40;3.10;;;31.60;9.30;;;;;;4896568;29;20427;-72
2022/08/10 11:21:58;;;;;;;4.87;3.20;;;31.50;8.80;;;;;;4895835;29;20460;-72
2022/08/10 11:25:03;;;;;;;7.00;3.07;;;31.70;8.90;;;;;;4896444;29;20485;-72
2022/08/10 11:27:47;;;;;;;5.00;3.47;;;32.00;9.70;;;;;;4896722;29;20811;-72
2022/08/10 11:30:19;;;;;;;4.83;2.73;;;32.30;7.20;;;;;;4896501;29;20449;-72
2022/08/10 11:33:02;;;;;;;11.13;3.03;;;33.00;7.60;;;;;;4895794;29;20473;-72
2022/08/10 11:35:35;;;;;;;9.00;2.90;;;34.00;5.80;;;;;;4896593;29;20425;-75
2022/08/10 11:38:06;;;;;;;4.30;2.77;;;34.70;5.20;;;;;;4896587;29;20504;-75
2022/08/10 11:40:43;;;;;;;3.20;2.60;;;34.80;4.40;;;;;;4896091;29;20600;-75
2022/08/10 11:43:21;;;;;;;7.10;2.80;;;35.20;5.70;;;;;;4896223;29;20432;-73
2022/08/10 11:46:02;;;;;;;9.60;2.60;;;35.10;5.60;;;;;;4896433;29;20425;-74
2022/08/10 11:48:49;;;;;;;5.23;2.70;;;35.90;5.30;;;;;;4936473;29;20892;-74
2022/08/10 11:51:27;;;;;;;7.00;2.43;;;36.50;5.60;;;;;;4935811;29;20481;-74
2022/08/10 11:54:04;;;;;;;2.80;2.60;;;36.40;5.30;;;;;;4950210;28;20977;-73
2022/08/10 11:56:38;;;;;;;6.80;2.63;;;36.20;3.70;;;;;;4955581;29;20446;-74
2022/08/10 12:01:51;;;;;;;2.80;2.40;;;37.70;3.20;;;;;;4955332;29;20473;-77
2022/08/10 12:04:20;;;;;;;4.73;2.50;;;37.90;2.80;;;;;;4956568;28;20913;-75
2022/08/10 12:06:47;;;;;;;9.57;2.80;;;37.40;3.40;;;;;;4954915;28;20793;-74
2022/08/10 12:09:15;;;;;;;5.27;2.37;;;37.30;3.40;;;;;;4954943;29;20422;-75
2022/08/10 12:11:41;;;;;;;11.03;2.57;;;37.50;4.30;;;;;;4954642;29;20473;-76
2022/08/10 12:14:23;;;;;;;7.33;2.60;;;37.40;2.90;;;;;;4955728;28;20459;-76
2022/08/10 12:16:53;;;;;;;7.60;2.80;;;38.10;2.80;;;;;;4948255;28;20422;-75
2022/08/10 12:19:37;;;;;;;3.07;2.07;;;38.10;1.80;;;;;;4955468;29;20403;-75
2022/08/10 12:22:10;;;;;;;4.77;2.60;;;38.50;3.00;;;;;;4954466;29;20419;-77
2022/08/10 12:24:50;;;;;;;4.73;2.20;;;38.00;1.30;;;;;;4954885;29;20403;-75
2022/08/10 12:27:25;;;;;;;13.87;2.33;;;38.50;2.00;;;;;;4965101;28;20461;-75
2022/08/10 12:30:13;;;;;;;5.00;2.70;;;38.10;3.00;;;;;;4974323;28;20425;-75
2022/08/10 12:32:44;;;;;;;4.67;2.40;;;38.10;1.10;;;;;;4973697;28;20453;-75
2022/08/10 12:35:22;;;;;;;12.23;2.53;;;38.50;1.30;;;;;;4973972;28;20500;-75
2022/08/10 12:38:07;;;;;;;6.47;2.60;;;38.60;1.40;;;;;;4972529;28;20429;-76
2022/08/10 12:40:42;;;;;;;7.17;2.40;;;38.40;2.80;;;;;;4973424;28;21003;-78
2022/08/10 12:43:21;;;;;;;4.90;2.80;;;38.10;1.10;;;;;;4972295;28;20834;-75
2022/08/10 12:46:18;;;;;;;6.60;2.90;;;38.20;1.60;;;;;;4973696;28;20901;-76
2022/08/10 12:48:50;;;;;;;4.37;2.30;;;37.40;2.30;;;;;;4972251;28;20418;-75
2022/08/10 12:51:22;;;;;;;3.50;2.90;;;36.40;2.40;;;;;;4973230;28;20435;-74
2022/08/10 12:54:11;;;;;;;3.93;2.77;;;36.70;2.70;;;;;;4972703;28;20500;-75
2022/08/10 12:56:42;;;;;;;4.00;2.60;;;36.80;3.40;;;;;;4973052;28;20406;-75
2022/08/10 12:59:12;;;;;;;3.07;2.30;;;37.10;3.80;;;;;;4971557;28;20449;-75
2022/08/10 13:01:39;;;;;;;4.70;2.90;;;36.10;4.60;;;;;;4972843;28;20430;-75
2022/08/10 13:04:11;;;;;;;5.57;3.10;;;34.60;4.60;;;;;;4973374;28;20433;-74
2022/08/10 13:06:45;;;;;;;16.93;2.73;;;34.50;5.50;;;;;;4973434;28;20750;-74
2022/08/10 13:09:12;;;;;;;5.93;2.97;;;34.50;5.30;;;;;;4969330;28;20501;-74
2022/08/10 13:11:48;;;;;;;3.37;2.80;;;34.70;5.50;;;;;;4961992;28;20445;-74
2022/08/10 13:14:27;;;;;;;5.37;3.37;;;34.60;5.50;;;;;;4973131;28;20449;-74
2022/08/10 13:16:57;;;;;;;6.13;3.00;;;34.10;5.40;;;;;;4973477;28;20424;-76
2022/08/10 13:19:26;;;;;;;5.80;3.03;;;33.70;6.10;;;;;;4971720;28;20413;-75
2022/08/10 13:21:55;;;;;;;8.50;3.17;;;33.30;6.80;;;;;;4972923;28;20810;-74
2022/08/10 13:24:27;;;;;;;8.70;3.30;;;33.10;6.30;;;;;;4973983;28;20421;-77
2022/08/10 13:27:01;;;;;;;7.70;3.37;;;33.30;7.30;;;;;;4974464;28;20412;-77